createdAt,value
2018-07-20T00:00:09.905Z,6.17
2018-07-20T00:02:43.676Z,6.23
2018-07-20T00:05:17.534Z,6.07
2018-07-20T00:07:52.083Z,6.13
2018-07-20T00:10:26.557Z,6.47
2018-07-20T00:13:01.027Z,6.10
2018-07-20T00:15:34.823Z,6.13
2018-07-20T00:18:09.379Z,5.97
2018-07-20T00:20:43.265Z,6.60
2018-07-20T00:23:17.765Z,5.90
2018-07-20T00:25:51.569Z,6.75
2018-07-20T00:28:25.299Z,6.03
2018-07-20T00:30:59.167Z,5.93
2018-07-20T00:33:33.025Z,6.90
2018-07-20T00:36:07.008Z,6.90
2018-07-20T00:38:40.731Z,6.20
2018-07-20T00:41:14.593Z,6.70
2018-07-20T00:43:48.395Z,5.90
2018-07-20T00:46:22.138Z,6.20
2018-07-20T00:48:56.005Z,5.90
2018-07-20T00:51:30.597Z,6.78
2018-07-20T00:54:04.455Z,6.15
2018-07-20T00:56:39.031Z,6.00
2018-07-20T00:59:12.884Z,6.50
2018-07-20T01:01:46.680Z,6.82
2018-07-20T01:04:20.478Z,6.30
2018-07-20T01:06:54.215Z,6.77
2018-07-20T01:09:27.857Z,6.40
2018-07-20T01:12:02.543Z,7.07
2018-07-20T01:14:36.403Z,7.30
2018-07-20T01:17:10.350Z,6.00
2018-07-20T01:19:44.161Z,6.90
2018-07-20T01:22:18.682Z,6.57
2018-07-20T01:24:52.516Z,6.78
2018-07-20T01:27:26.315Z,6.50
2018-07-20T01:30:00.156Z,6.67
2018-07-20T01:32:33.931Z,6.80
2018-07-20T01:35:07.684Z,7.10
2018-07-20T01:37:41.420Z,7.03
2018-07-20T01:40:15.340Z,7.00
2018-07-20T01:42:49.904Z,6.70
2018-07-20T01:45:24.563Z,7.03
2018-07-20T01:47:58.266Z,6.37
2018-07-20T01:50:32.881Z,6.80
2018-07-20T01:53:07.491Z,7.22
2018-07-20T01:55:41.265Z,6.20
2018-07-20T01:58:15.862Z,6.00
2018-07-20T02:00:49.688Z,6.70
2018-07-20T02:03:23.483Z,6.78
2018-07-20T02:05:57.192Z,6.25
2018-07-20T02:08:31.040Z,6.35
2018-07-20T02:11:04.797Z,6.43
2018-07-20T02:13:38.571Z,6.82
2018-07-20T02:16:12.240Z,6.97
2018-07-20T02:18:46.092Z,6.62
2018-07-20T02:21:20.712Z,7.25
2018-07-20T02:23:55.300Z,6.78
2018-07-20T02:26:29.173Z,6.62
2018-07-20T02:29:02.844Z,7.32
2018-07-20T02:31:37.470Z,6.40
2018-07-20T02:34:11.291Z,7.75
2018-07-20T02:36:45.164Z,7.18
2018-07-20T02:39:18.987Z,7.03
2018-07-20T02:41:52.835Z,7.10
2018-07-20T02:44:26.545Z,7.40
2018-07-20T02:47:00.316Z,6.25
2018-07-20T02:49:34.788Z,6.85
2018-07-20T02:52:08.618Z,7.25
2018-07-20T02:54:43.115Z,7.18
2018-07-20T02:57:16.975Z,6.95
2018-07-20T02:59:51.448Z,7.18
2018-07-20T03:02:26.012Z,7.50
2018-07-20T03:04:59.789Z,6.70
2018-07-20T03:07:33.594Z,7.03
2018-07-20T03:10:07.409Z,7.70
2018-07-20T03:12:41.120Z,7.47
2018-07-20T03:15:15.050Z,7.07
2018-07-20T03:17:48.841Z,8.38
2018-07-20T03:20:22.479Z,7.78
2018-07-20T03:22:56.298Z,7.15
2018-07-20T03:25:29.963Z,6.85
2018-07-20T03:28:03.773Z,6.97
2018-07-20T03:30:37.557Z,8.02
2018-07-20T03:33:11.344Z,7.05
2018-07-20T03:35:45.071Z,7.20
2018-07-20T03:38:18.957Z,7.30
2018-07-20T03:40:53.621Z,7.10
2018-07-20T03:43:27.339Z,7.43
2018-07-20T03:46:01.031Z,7.50
2018-07-20T03:48:34.768Z,7.12
2018-07-20T03:51:09.356Z,7.82
2018-07-20T03:53:43.063Z,7.93
2018-07-20T03:56:16.887Z,6.80
2018-07-20T03:58:50.634Z,8.30
2018-07-20T04:01:25.544Z,7.00
2018-07-20T04:03:59.397Z,7.47
2018-07-20T04:06:33.279Z,7.85
2018-07-20T04:09:06.993Z,7.57
2018-07-20T04:11:40.873Z,7.95
2018-07-20T04:14:14.507Z,8.23
2018-07-20T04:16:48.151Z,7.50
2018-07-20T04:19:22.599Z,7.75
2018-07-20T04:21:56.414Z,8.02
2018-07-20T04:24:30.103Z,8.60
2018-07-20T04:27:04.673Z,8.18
2018-07-20T04:29:40.058Z,7.80
2018-07-20T04:32:13.708Z,8.13
2018-07-20T04:34:48.252Z,8.25
2018-07-20T04:37:22.841Z,8.90
2018-07-20T04:39:56.680Z,8.30
2018-07-20T04:42:30.289Z,7.85
2018-07-20T04:45:04.144Z,8.80
2018-07-20T04:47:38.774Z,9.30
2018-07-20T04:50:12.569Z,8.50
2018-07-20T04:52:47.139Z,9.50
2018-07-20T04:55:21.656Z,8.75
2018-07-20T04:57:56.719Z,9.10
2018-07-20T05:00:30.585Z,8.63
2018-07-20T05:03:04.439Z,8.55
2018-07-20T05:05:41.432Z,9.57
2018-07-20T05:08:15.239Z,9.25
2018-07-20T05:10:49.700Z,9.47
2018-07-20T05:13:23.508Z,9.38
2018-07-20T05:15:57.149Z,9.63
2018-07-20T05:18:30.939Z,8.97
2018-07-20T05:21:05.569Z,8.67
2018-07-20T05:23:39.254Z,7.90
2018-07-20T05:26:12.942Z,9.07
2018-07-20T05:28:46.720Z,8.40
2018-07-20T05:31:20.466Z,8.70
2018-07-20T05:33:54.980Z,8.70
2018-07-20T05:36:29.524Z,9.60
2018-07-20T05:39:04.114Z,8.87
2018-07-20T05:41:37.723Z,9.67
2018-07-20T05:44:12.294Z,9.43
2018-07-20T05:46:46.173Z,9.10
2018-07-20T05:49:20.693Z,9.57
2018-07-20T05:51:54.562Z,9.80
2018-07-20T05:54:28.425Z,9.50
2018-07-20T05:57:03.332Z,11.60
2018-07-20T05:59:37.206Z,10.15
2018-07-20T06:02:11.097Z,9.53
2018-07-20T06:04:44.925Z,9.30
2018-07-20T06:07:18.814Z,9.33
2018-07-20T06:09:52.422Z,10.60
2018-07-20T06:12:27.011Z,9.50
2018-07-20T06:15:00.672Z,9.07
2018-07-20T06:17:34.443Z,10.10
2018-07-20T06:20:09.013Z,9.20
2018-07-20T06:22:43.554Z,9.50
2018-07-20T06:25:17.370Z,9.10
2018-07-20T06:27:50.980Z,9.33
2018-07-20T06:30:24.854Z,9.40
2018-07-20T06:32:59.376Z,9.60
2018-07-20T06:35:33.219Z,10.10
2018-07-20T06:38:07.830Z,9.43
2018-07-20T06:40:41.437Z,8.83
2018-07-20T06:43:15.304Z,10.20
2018-07-20T06:45:49.226Z,10.67
2018-07-20T06:48:22.968Z,10.30
2018-07-20T06:50:56.770Z,10.13
2018-07-20T06:53:30.489Z,10.47
2018-07-20T06:56:04.288Z,11.37
2018-07-20T06:58:38.087Z,11.20
2018-07-20T07:01:11.961Z,11.00
2018-07-20T07:03:45.566Z,9.90
2018-07-20T07:06:19.280Z,9.67
2018-07-20T07:08:53.109Z,11.00
2018-07-20T07:11:26.940Z,10.83
2018-07-20T07:14:00.669Z,10.57
2018-07-20T07:16:35.263Z,10.20
2018-07-20T07:19:09.883Z,10.00
2018-07-20T07:21:43.771Z,9.57
2018-07-20T07:24:17.698Z,9.40
2018-07-20T07:26:51.499Z,9.37
2018-07-20T07:29:25.320Z,9.40
2018-07-20T07:31:59.107Z,9.00
2018-07-20T07:34:32.917Z,9.00
2018-07-20T07:37:07.453Z,8.77
2018-07-20T07:39:41.272Z,8.23
2018-07-20T07:42:15.191Z,9.80
2018-07-20T07:44:48.902Z,9.97
2018-07-20T07:47:23.523Z,9.87
2018-07-20T07:49:57.340Z,9.83
2018-07-20T07:52:31.189Z,9.60
2018-07-20T07:55:05.034Z,10.53
2018-07-20T07:57:38.845Z,9.30
2018-07-20T08:00:12.642Z,10.80
2018-07-20T08:02:46.472Z,9.40
2018-07-20T08:05:20.251Z,10.53
2018-07-20T08:07:54.212Z,9.13
2018-07-20T08:10:27.885Z,9.27
2018-07-20T08:13:02.462Z,9.60
2018-07-20T08:15:36.939Z,9.10
2018-07-20T08:18:10.775Z,8.50
2018-07-20T08:20:44.620Z,8.63
2018-07-20T08:23:18.395Z,7.53
2018-07-20T08:25:52.183Z,7.93
2018-07-20T08:28:26.014Z,7.00
2018-07-20T08:30:59.877Z,8.33
2018-07-20T08:33:33.617Z,7.40
2018-07-20T08:36:07.392Z,6.73
2018-07-20T08:38:41.134Z,7.10
2018-07-20T08:41:14.976Z,6.87
2018-07-20T08:43:48.733Z,6.87
2018-07-20T08:46:23.124Z,7.50
2018-07-20T08:48:56.892Z,7.00
2018-07-20T08:51:30.533Z,6.50
2018-07-20T08:54:04.401Z,7.07
2018-07-20T08:56:38.974Z,7.30
2018-07-20T08:59:12.649Z,6.93
2018-07-20T09:01:46.360Z,5.63
2018-07-20T09:04:20.111Z,5.30
2018-07-20T09:06:53.772Z,5.77
2018-07-20T09:09:27.509Z,5.50
2018-07-20T09:12:02.123Z,5.97
2018-07-20T09:14:36.686Z,5.30
2018-07-20T09:17:10.488Z,5.93
2018-07-20T09:19:44.192Z,6.10
2018-07-20T09:22:18.795Z,5.53
2018-07-20T09:24:52.469Z,6.33
2018-07-20T09:27:26.140Z,6.83
2018-07-20T09:30:00.781Z,5.87
2018-07-20T09:32:34.701Z,5.33
2018-07-20T09:35:08.503Z,6.40
2018-07-20T09:37:42.256Z,7.00
2018-07-20T09:40:15.996Z,12.50
2018-07-20T09:42:50.596Z,6.70
2018-07-20T09:45:24.351Z,6.13
2018-07-20T09:47:58.921Z,5.93
2018-07-20T09:50:32.631Z,6.13
2018-07-20T09:53:06.501Z,6.10
2018-07-20T09:55:40.267Z,6.13
2018-07-20T09:58:14.007Z,5.90
2018-07-20T10:00:48.495Z,5.93
2018-07-20T10:03:22.268Z,6.13
2018-07-20T10:05:56.081Z,5.90
2018-07-20T10:08:30.747Z,6.60
2018-07-20T10:11:05.175Z,6.40
2018-07-20T10:13:38.970Z,7.30
2018-07-20T10:16:12.875Z,6.43
2018-07-20T10:18:46.594Z,6.73
2018-07-20T10:21:20.393Z,6.80
2018-07-20T10:23:54.080Z,6.60
2018-07-20T10:26:27.630Z,5.83
2018-07-20T10:29:01.573Z,7.60
2018-07-20T10:31:35.225Z,6.07
2018-07-20T10:34:09.407Z,7.47
2018-07-20T10:36:43.033Z,6.80
2018-07-20T10:39:17.614Z,6.60
2018-07-20T10:41:51.372Z,6.10
2018-07-20T10:44:25.198Z,5.40
2018-07-20T10:46:59.101Z,5.70
2018-07-20T10:49:32.980Z,6.47
2018-07-20T10:52:06.725Z,6.77
2018-07-20T10:54:40.466Z,6.07
2018-07-20T10:57:14.926Z,6.50
2018-07-20T10:59:48.732Z,7.83
2018-07-20T11:02:23.153Z,6.33
2018-07-20T11:04:57.704Z,5.87
2018-07-20T11:07:31.566Z,5.77
2018-07-20T11:10:05.309Z,6.00
2018-07-20T11:12:39.524Z,6.53
2018-07-20T11:15:14.012Z,6.43
2018-07-20T11:17:48.619Z,6.40
2018-07-20T11:20:22.413Z,6.10
2018-07-20T11:22:56.089Z,6.20
2018-07-20T11:25:29.883Z,5.93
2018-07-20T11:28:03.687Z,6.90
2018-07-20T11:30:37.474Z,6.70
2018-07-20T11:33:11.239Z,7.60
2018-07-20T11:35:45.735Z,6.40
2018-07-20T11:38:19.532Z,6.20
2018-07-20T11:40:53.465Z,6.37
2018-07-20T11:43:27.255Z,6.70
2018-07-20T11:46:01.056Z,6.70
2018-07-20T11:48:34.940Z,6.50
2018-07-20T11:51:08.775Z,6.77
2018-07-20T11:53:42.655Z,6.57
2018-07-20T11:56:16.362Z,7.37
2018-07-20T11:58:50.203Z,6.97
2018-07-20T12:01:23.958Z,6.80
2018-07-20T12:03:57.786Z,6.90
2018-07-20T12:06:31.501Z,7.20
2018-07-20T12:09:05.695Z,6.90
2018-07-20T12:11:40.392Z,6.90
2018-07-20T12:14:14.907Z,6.60
2018-07-20T12:16:49.365Z,23.33
2018-07-20T12:19:23.224Z,6.17
2018-07-20T12:21:57.690Z,7.10
2018-07-20T12:24:31.570Z,6.47
2018-07-20T12:27:05.951Z,6.50
2018-07-20T12:29:40.515Z,7.87
2018-07-20T12:32:15.220Z,7.70
2018-07-20T12:34:48.919Z,6.30
2018-07-20T12:37:22.651Z,6.70
2018-07-20T12:39:57.306Z,6.40
2018-07-20T12:42:31.121Z,6.23
2018-07-20T12:45:04.827Z,7.10
2018-07-20T12:47:38.512Z,7.20
2018-07-20T12:50:12.338Z,6.80
2018-07-20T12:52:46.867Z,6.97
2018-07-20T12:55:20.695Z,6.97
2018-07-20T12:57:55.264Z,7.10
2018-07-20T13:00:29.007Z,7.30
2018-07-20T13:03:03.718Z,7.53
2018-07-20T13:05:38.226Z,7.37
2018-07-20T13:08:12.115Z,6.60
2018-07-20T13:10:45.775Z,7.13
2018-07-20T13:13:19.621Z,6.30
2018-07-20T13:15:54.197Z,8.40
2018-07-20T13:18:27.852Z,7.03
2018-07-20T13:21:01.599Z,6.93
2018-07-20T13:23:35.319Z,7.03
2018-07-20T13:26:09.141Z,6.77
2018-07-20T13:28:43.874Z,8.13
2018-07-20T13:31:17.759Z,6.70
2018-07-20T13:33:51.532Z,7.10
2018-07-20T13:36:25.413Z,7.00
2018-07-20T13:39:00.416Z,7.80
2018-07-20T13:41:34.158Z,8.30
2018-07-20T13:44:08.026Z,7.10
2018-07-20T13:46:41.709Z,7.10
2018-07-20T13:49:15.415Z,8.40
2018-07-20T13:51:49.292Z,7.23
2018-07-20T13:54:22.967Z,8.23
2018-07-20T13:56:56.838Z,7.10
2018-07-20T13:59:30.637Z,7.03
2018-07-20T14:02:04.419Z,6.93
2018-07-20T14:04:38.172Z,7.53
2018-07-20T14:07:12.042Z,8.00
2018-07-20T14:09:45.939Z,7.57
2018-07-20T14:12:19.816Z,8.80
2018-07-20T14:14:54.363Z,6.77
2018-07-20T14:17:28.217Z,6.77
2018-07-20T14:20:01.951Z,8.23
2018-07-20T14:22:35.692Z,6.40
2018-07-20T14:25:09.546Z,6.40
2018-07-20T14:27:43.264Z,6.00
2018-07-20T14:30:17.176Z,6.20
2018-07-20T14:32:52.452Z,6.73
2018-07-20T14:35:27.218Z,6.10
2018-07-20T14:38:01.026Z,6.90
2018-07-20T14:40:34.796Z,7.50
2018-07-20T14:43:08.580Z,6.60
2018-07-20T14:45:42.207Z,6.97
2018-07-20T14:48:15.800Z,7.33
2018-07-20T14:50:49.664Z,6.00
2018-07-20T14:53:23.608Z,5.83
2018-07-20T14:55:57.376Z,6.20
2018-07-20T14:58:31.234Z,6.50
2018-07-20T15:01:05.036Z,6.03
2018-07-20T15:03:38.795Z,5.20
2018-07-20T15:06:13.565Z,5.10
2018-07-20T15:08:47.259Z,5.97
2018-07-20T15:11:21.166Z,5.70
2018-07-20T15:13:55.394Z,5.80
2018-07-20T15:16:29.272Z,5.40
2018-07-20T15:19:03.241Z,5.40
2018-07-20T15:21:37.276Z,6.07
2018-07-20T15:24:11.505Z,5.60
2018-07-20T15:26:46.531Z,5.80
2018-07-20T15:29:20.461Z,5.70
2018-07-20T15:31:54.375Z,5.80
2018-07-20T15:34:28.252Z,6.43
2018-07-20T15:37:02.443Z,5.60
2018-07-20T15:39:36.179Z,5.37
2018-07-20T15:42:09.942Z,5.17
2018-07-20T15:44:44.463Z,5.23
2018-07-20T15:47:18.284Z,7.10
2018-07-20T15:49:52.915Z,6.43
2018-07-20T15:55:00.411Z,6.37
2018-07-20T15:57:34.155Z,5.70
2018-07-20T16:00:08.819Z,6.53
2018-07-20T16:02:42.676Z,8.90
2018-07-20T16:05:17.207Z,9.50
2018-07-20T16:07:51.780Z,8.90
2018-07-20T16:10:25.930Z,6.37
2018-07-20T16:13:00.300Z,9.93
2018-07-20T16:15:34.063Z,10.57
2018-07-20T16:18:07.755Z,6.80
2018-07-20T16:20:41.614Z,6.50
2018-07-20T16:23:15.352Z,7.07
2018-07-20T16:25:49.322Z,6.00
2018-07-20T16:28:23.782Z,8.70
2018-07-20T16:30:58.334Z,6.73
2018-07-20T16:33:32.940Z,7.90
2018-07-20T16:36:06.684Z,7.20
2018-07-20T16:38:40.543Z,6.87
2018-07-20T16:41:14.420Z,7.40
2018-07-20T16:43:48.139Z,7.40
2018-07-20T16:46:21.784Z,7.40
2018-07-20T16:48:55.498Z,6.83
2018-07-20T16:51:29.310Z,5.70
2018-07-20T16:54:03.869Z,6.47
2018-07-20T16:56:37.685Z,6.50
2018-07-20T16:59:11.567Z,5.10
2018-07-20T17:01:45.258Z,5.23
2018-07-20T17:04:18.975Z,4.80
2018-07-20T17:06:53.533Z,5.03
2018-07-20T17:09:27.410Z,4.80
2018-07-20T17:12:01.912Z,4.50
2018-07-20T17:14:36.532Z,6.50
2018-07-20T17:17:10.339Z,4.67
2018-07-20T17:19:44.023Z,6.40
2018-07-20T17:22:17.830Z,4.83
2018-07-20T17:24:52.518Z,4.93
2018-07-20T17:27:26.319Z,6.20
2018-07-20T17:30:00.183Z,5.73
2018-07-20T17:32:34.010Z,3.40
2018-07-20T17:35:07.932Z,3.67
2018-07-20T17:37:41.781Z,6.57
2018-07-20T17:40:15.780Z,3.37
2018-07-20T17:42:49.551Z,4.83
2018-07-20T17:45:23.444Z,4.13
2018-07-20T17:47:57.130Z,3.70
2018-07-20T17:50:30.901Z,4.70
2018-07-20T17:53:05.435Z,4.67
2018-07-20T17:55:39.105Z,3.73
2018-07-20T17:58:12.888Z,7.17
2018-07-20T18:00:47.488Z,4.70
2018-07-20T18:03:21.234Z,4.20
2018-07-20T18:05:55.191Z,3.83
2018-07-20T18:08:28.996Z,3.97
2018-07-20T18:11:02.828Z,4.97
2018-07-20T18:13:36.655Z,4.23
2018-07-20T18:16:10.509Z,4.33
2018-07-20T18:18:44.433Z,5.40
2018-07-20T18:21:18.137Z,4.30
2018-07-20T18:23:52.747Z,3.87
2018-07-20T18:26:26.428Z,3.77
2018-07-20T18:29:00.264Z,3.77
2018-07-20T18:31:34.039Z,5.30
2018-07-20T18:34:07.875Z,3.83
2018-07-20T18:36:41.601Z,5.90
2018-07-20T18:39:15.479Z,4.57
2018-07-20T18:41:49.228Z,4.13
2018-07-20T18:44:22.887Z,4.33
2018-07-20T18:46:56.733Z,5.20
2018-07-20T18:49:30.463Z,3.90
2018-07-20T18:52:04.328Z,5.90
2018-07-20T18:54:38.101Z,5.80
2018-07-20T18:57:11.931Z,4.53
2018-07-20T18:59:45.732Z,4.60
2018-07-20T19:02:19.577Z,5.00
2018-07-20T19:04:53.263Z,4.93
2018-07-20T19:07:27.116Z,4.27
2018-07-20T19:10:00.971Z,5.30
2018-07-20T19:12:34.807Z,5.33
2018-07-20T19:15:08.636Z,5.20
2018-07-20T19:17:42.301Z,5.13
2018-07-20T19:20:16.107Z,5.63
2018-07-20T19:22:50.791Z,5.90
2018-07-20T19:25:24.550Z,6.00
2018-07-20T19:27:58.467Z,5.33
2018-07-20T19:30:32.307Z,4.90
2018-07-20T19:33:06.156Z,5.10
2018-07-20T19:35:39.911Z,6.00
2018-07-20T19:38:13.678Z,5.20
2018-07-20T19:40:47.435Z,5.93
2018-07-20T19:43:21.231Z,5.27
2018-07-20T19:45:55.047Z,5.10
2018-07-20T19:48:28.782Z,5.60
2018-07-20T19:51:02.490Z,5.67
2018-07-20T19:53:36.263Z,5.03
2018-07-20T19:56:10.903Z,6.57
2018-07-20T19:58:45.296Z,5.47
2018-07-20T20:01:19.148Z,6.40
2018-07-20T20:03:52.891Z,5.50
2018-07-20T20:06:27.423Z,5.50
2018-07-20T20:09:01.225Z,7.60
2018-07-20T20:11:35.044Z,5.53
2018-07-20T20:14:09.583Z,6.70
2018-07-20T20:16:44.115Z,5.53
2018-07-20T20:19:17.892Z,6.70
2018-07-20T20:21:51.746Z,5.57
2018-07-20T20:24:25.604Z,6.20
2018-07-20T20:26:59.383Z,5.50
2018-07-20T20:29:33.342Z,6.10
2018-07-20T20:32:07.107Z,7.47
2018-07-20T20:34:40.983Z,5.87
2018-07-20T20:37:14.836Z,6.53
2018-07-20T20:39:48.664Z,6.40
2018-07-20T20:42:22.449Z,6.17
2018-07-20T20:44:56.339Z,9.23
2018-07-20T20:47:30.060Z,12.40
2018-07-20T20:50:05.087Z,12.43
2018-07-20T20:52:39.034Z,11.27
2018-07-20T20:55:12.779Z,11.10
2018-07-20T20:57:47.268Z,11.70
2018-07-20T21:00:21.021Z,8.33
2018-07-20T21:02:54.839Z,8.90
2018-07-20T21:05:28.503Z,6.97
2018-07-20T21:08:03.041Z,6.73
2018-07-20T21:10:36.789Z,10.10
2018-07-20T21:13:11.425Z,8.90
2018-07-20T21:15:45.127Z,11.33
2018-07-20T21:18:19.811Z,10.73
2018-07-20T21:20:53.460Z,9.17
2018-07-20T21:23:27.289Z,7.20
2018-07-20T21:26:01.132Z,7.70
2018-07-20T21:28:34.744Z,7.07
2018-07-20T21:31:08.599Z,7.30
2018-07-20T21:33:42.375Z,7.60
2018-07-20T21:36:16.216Z,7.10
2018-07-20T21:38:49.989Z,7.77
2018-07-20T21:41:23.838Z,7.87
2018-07-20T21:43:58.411Z,7.43
2018-07-20T21:46:32.206Z,7.37
2018-07-20T21:49:06.046Z,8.00
2018-07-20T21:51:39.773Z,7.60
2018-07-20T21:54:13.575Z,7.37
2018-07-20T21:56:47.410Z,7.00
2018-07-20T21:59:21.267Z,6.60
2018-07-20T22:01:55.634Z,6.27
2018-07-20T22:04:29.453Z,7.00
2018-07-20T22:07:03.926Z,6.43
2018-07-20T22:09:37.743Z,7.47
2018-07-20T22:12:12.299Z,7.17
2018-07-20T22:14:46.189Z,7.60
2018-07-20T22:17:19.983Z,7.50
2018-07-20T22:19:53.765Z,7.20
2018-07-20T22:22:28.262Z,7.43
2018-07-20T22:25:02.781Z,8.63
2018-07-20T22:27:36.544Z,8.03
2018-07-20T22:30:11.253Z,7.70
2018-07-20T22:32:44.926Z,7.37
2018-07-20T22:35:18.761Z,7.93
2018-07-20T22:37:53.259Z,10.00
2018-07-20T22:40:27.831Z,7.90
2018-07-20T22:43:01.500Z,7.07
2018-07-20T22:45:35.393Z,8.10
2018-07-20T22:48:09.183Z,8.53
2018-07-20T22:50:43.617Z,8.90
2018-07-20T22:53:17.410Z,8.85
2018-07-20T22:55:52.064Z,9.20
2018-07-20T22:58:25.853Z,8.97
2018-07-20T23:00:59.571Z,9.05
2018-07-20T23:03:33.327Z,9.13
2018-07-20T23:06:07.237Z,8.88
2018-07-20T23:08:41.060Z,8.40
2018-07-20T23:11:15.615Z,10.00
2018-07-20T23:13:50.208Z,9.30
2018-07-20T23:16:24.847Z,9.85
2018-07-20T23:18:58.811Z,9.73
2018-07-20T23:21:32.626Z,9.55
2018-07-20T23:24:07.169Z,9.40
2018-07-20T23:26:41.092Z,9.52
2018-07-20T23:29:15.717Z,9.75
2018-07-20T23:31:49.522Z,10.57
2018-07-20T23:34:23.364Z,10.83
2018-07-20T23:36:57.858Z,9.70
2018-07-20T23:39:32.856Z,9.63
2018-07-20T23:42:06.552Z,9.98
2018-07-20T23:44:40.440Z,10.38
2018-07-20T23:47:15.072Z,10.82
2018-07-20T23:49:48.744Z,8.43
2018-07-20T23:52:23.398Z,9.20
2018-07-20T23:54:58.775Z,9.05
2018-07-20T23:57:32.468Z,10.25
